sensor_id;sensor_type;location;lat;lon;timestamp;temperature;humidity
52565;DHT22;38460;53.106;7.004;2023-06-22T00:00:50;18.50;99.90
52565;DHT22;38460;53.106;7.004;2023-06-22T00:03:21;18.50;99.90
52565;DHT22;38460;53.106;7.004;2023-06-22T00:05:48;18.50;99.90
52565;DHT22;38460;53.106;7.004;2023-06-22T00:08:14;18.50;99.90
52565;DHT22;38460;53.106;7.004;2023-06-22T00:10:40;18.50;99.90
52565;DHT22;38460;53.106;7.004;2023-06-22T00:13:07;18.50;99.90
52565;DHT22;38460;53.106;7.004;2023-06-22T00:15:34;18.50;99.90
52565;DHT22;38460;53.106;7.004;2023-06-22T00:18:00;18.50;99.90
52565;DHT22;38460;53.106;7.004;2023-06-22T00:20:26;18.40;99.90
52565;DHT22;38460;53.106;7.004;2023-06-22T00:22:59;18.40;99.90
52565;DHT22;38460;53.106;7.004;2023-06-22T00:25:25;18.40;99.90
52565;DHT22;38460;53.106;7.004;2023-06-22T00:27:51;18.40;99.90
52565;DHT22;38460;53.106;7.004;2023-06-22T00:30:18;18.30;99.90
52565;DHT22;38460;53.106;7.004;2023-06-22T00:32:45;18.30;99.90
52565;DHT22;38460;53.106;7.004;2023-06-22T00:35:12;18.30;99.90
52565;DHT22;38460;53.106;7.004;2023-06-22T00:37:39;18.30;99.90
52565;DHT22;38460;53.106;7.004;2023-06-22T00:40:08;18.20;99.90
52565;DHT22;38460;53.106;7.004;2023-06-22T00:42:37;18.20;99.90
52565;DHT22;38460;53.106;7.004;2023-06-22T00:45:03;18.20;99.90
52565;DHT22;38460;53.106;7.004;2023-06-22T00:47:29;18.10;99.90
52565;DHT22;38460;53.106;7.004;2023-06-22T00:49:55;18.10;99.90
52565;DHT22;38460;53.106;7.004;2023-06-22T00:52:22;18.10;99.90
52565;DHT22;38460;53.106;7.004;2023-06-22T00:54:53;18.10;99.90
52565;DHT22;38460;53.106;7.004;2023-06-22T00:57:20;18.00;99.90
52565;DHT22;38460;53.106;7.004;2023-06-22T00:59:47;18.00;99.90
52565;DHT22;38460;53.106;7.004;2023-06-22T01:02:14;18.00;99.90
52565;DHT22;38460;53.106;7.004;2023-06-22T01:04:40;18.00;99.90
52565;DHT22;38460;53.106;7.004;2023-06-22T01:12:45;17.80;99.90
52565;DHT22;38460;53.106;7.004;2023-06-22T01:15:23;17.80;99.90
52565;DHT22;38460;53.106;7.004;2023-06-22T01:17:52;17.70;99.90
52565;DHT22;38460;53.106;7.004;2023-06-22T01:20:19;17.60;99.90
52565;DHT22;38460;53.106;7.004;2023-06-22T01:23:17;17.60;99.90
52565;DHT22;38460;53.106;7.004;2023-06-22T01:28:59;17.40;99.90
52565;DHT22;38460;53.106;7.004;2023-06-22T01:31:27;17.40;99.90
52565;DHT22;38460;53.106;7.004;2023-06-22T01:34:05;17.30;99.90
52565;DHT22;38460;53.106;7.004;2023-06-22T01:36:32;17.30;99.90
52565;DHT22;38460;53.106;7.004;2023-06-22T01:38:59;17.20;99.90
52565;DHT22;38460;53.106;7.004;2023-06-22T01:41:29;17.20;99.90
52565;DHT22;38460;53.106;7.004;2023-06-22T01:43:56;17.20;99.90
52565;DHT22;38460;53.106;7.004;2023-06-22T01:46:22;17.20;99.90
52565;DHT22;38460;53.106;7.004;2023-06-22T01:48:49;17.20;99.90
52565;DHT22;38460;53.106;7.004;2023-06-22T01:51:15;17.10;99.90
52565;DHT22;38460;53.106;7.004;2023-06-22T01:53:41;17.10;99.90
52565;DHT22;38460;53.106;7.004;2023-06-22T01:56:08;17.00;99.90
52565;DHT22;38460;53.106;7.004;2023-06-22T01:58:36;17.00;99.90
52565;DHT22;38460;53.106;7.004;2023-06-22T02:01:09;17.00;99.90
52565;DHT22;38460;53.106;7.004;2023-06-22T02:03:43;17.10;99.90
52565;DHT22;38460;53.106;7.004;2023-06-22T02:06:26;17.00;99.90
52565;DHT22;38460;53.106;7.004;2023-06-22T02:08:59;17.00;99.90
52565;DHT22;38460;53.106;7.004;2023-06-22T02:11:28;17.00;99.90
52565;DHT22;38460;53.106;7.004;2023-06-22T02:13:55;16.90;99.90
52565;DHT22;38460;53.106;7.004;2023-06-22T02:16:23;16.90;99.90
52565;DHT22;38460;53.106;7.004;2023-06-22T02:18:49;16.90;99.90
52565;DHT22;38460;53.106;7.004;2023-06-22T02:21:19;16.90;99.90
52565;DHT22;38460;53.106;7.004;2023-06-22T02:23:44;16.90;99.90
52565;DHT22;38460;53.106;7.004;2023-06-22T02:26:10;16.90;99.90
52565;DHT22;38460;53.106;7.004;2023-06-22T02:28:36;16.90;99.90
52565;DHT22;38460;53.106;7.004;2023-06-22T02:31:02;16.90;99.90
52565;DHT22;38460;53.106;7.004;2023-06-22T02:33:27;16.90;99.90
52565;DHT22;38460;53.106;7.004;2023-06-22T02:35:53;16.80;99.90
52565;DHT22;38460;53.106;7.004;2023-06-22T02:38:19;16.80;99.90
52565;DHT22;38460;53.106;7.004;2023-06-22T02:40:46;16.80;99.90
52565;DHT22;38460;53.106;7.004;2023-06-22T02:43:12;16.80;99.90
52565;DHT22;38460;53.106;7.004;2023-06-22T02:45:38;16.70;99.90
52565;DHT22;38460;53.106;7.004;2023-06-22T02:48:04;16.70;99.90
52565;DHT22;38460;53.106;7.004;2023-06-22T02:50:30;16.70;99.90
52565;DHT22;38460;53.106;7.004;2023-06-22T02:52:55;16.70;99.90
52565;DHT22;38460;53.106;7.004;2023-06-22T02:55:21;16.60;99.90
52565;DHT22;38460;53.106;7.004;2023-06-22T02:57:47;16.60;99.90
52565;DHT22;38460;53.106;7.004;2023-06-22T03:00:14;16.60;99.90
52565;DHT22;38460;53.106;7.004;2023-06-22T03:02:44;16.60;99.90
52565;DHT22;38460;53.106;7.004;2023-06-22T03:05:10;16.60;99.90
52565;DHT22;38460;53.106;7.004;2023-06-22T03:07:43;16.60;99.90
52565;DHT22;38460;53.106;7.004;2023-06-22T03:10:10;16.50;99.90
52565;DHT22;38460;53.106;7.004;2023-06-22T03:12:37;16.50;99.90
52565;DHT22;38460;53.106;7.004;2023-06-22T03:15:07;16.50;99.90
52565;DHT22;38460;53.106;7.004;2023-06-22T03:17:34;16.50;99.90
52565;DHT22;38460;53.106;7.004;2023-06-22T03:20:01;16.50;99.90
52565;DHT22;38460;53.106;7.004;2023-06-22T03:22:26;16.50;99.90
52565;DHT22;38460;53.106;7.004;2023-06-22T03:24:52;16.40;99.90
52565;DHT22;38460;53.106;7.004;2023-06-22T03:27:18;16.40;99.90
52565;DHT22;38460;53.106;7.004;2023-06-22T03:29:44;16.40;99.90
52565;DHT22;38460;53.106;7.004;2023-06-22T03:32:10;16.40;99.90
52565;DHT22;38460;53.106;7.004;2023-06-22T03:34:36;16.40;99.90
52565;DHT22;38460;53.106;7.004;2023-06-22T03:37:02;16.40;99.90
52565;DHT22;38460;53.106;7.004;2023-06-22T03:39:28;16.40;99.90
52565;DHT22;38460;53.106;7.004;2023-06-22T03:41:54;16.40;99.90
52565;DHT22;38460;53.106;7.004;2023-06-22T03:44:20;16.40;99.90
52565;DHT22;38460;53.106;7.004;2023-06-22T03:46:45;16.40;99.90
52565;DHT22;38460;53.106;7.004;2023-06-22T03:49:11;16.40;99.90
52565;DHT22;38460;53.106;7.004;2023-06-22T03:51:37;16.30;99.90
52565;DHT22;38460;53.106;7.004;2023-06-22T03:54:03;16.30;99.90
52565;DHT22;38460;53.106;7.004;2023-06-22T03:56:28;16.30;99.90
52565;DHT22;38460;53.106;7.004;2023-06-22T03:58:54;16.50;99.90
52565;DHT22;38460;53.106;7.004;2023-06-22T04:01:20;16.40;99.90
52565;DHT22;38460;53.106;7.004;2023-06-22T04:03:45;16.40;99.90
52565;DHT22;38460;53.106;7.004;2023-06-22T04:06:14;16.40;99.90
52565;DHT22;38460;53.106;7.004;2023-06-22T04:08:39;16.40;99.90
52565;DHT22;38460;53.106;7.004;2023-06-22T04:11:06;16.40;99.90
52565;DHT22;38460;53.106;7.004;2023-06-22T04:13:32;16.40;99.90
52565;DHT22;38460;53.106;7.004;2023-06-22T04:15:57;16.40;99.90
52565;DHT22;38460;53.106;7.004;2023-06-22T04:18:23;16.40;99.90
52565;DHT22;38460;53.106;7.004;2023-06-22T04:20:49;16.50;99.90
52565;DHT22;38460;53.106;7.004;2023-06-22T04:23:15;16.50;99.90
52565;DHT22;38460;53.106;7.004;2023-06-22T04:25:40;16.50;99.90
52565;DHT22;38460;53.106;7.004;2023-06-22T04:28:06;16.60;99.90
52565;DHT22;38460;53.106;7.004;2023-06-22T04:30:33;16.60;99.90
52565;DHT22;38460;53.106;7.004;2023-06-22T04:32:58;16.70;99.90
52565;DHT22;38460;53.106;7.004;2023-06-22T04:35:25;16.70;99.90
52565;DHT22;38460;53.106;7.004;2023-06-22T04:37:52;16.80;99.90
52565;DHT22;38460;53.106;7.004;2023-06-22T04:40:21;16.80;99.90
52565;DHT22;38460;53.106;7.004;2023-06-22T04:42:47;16.80;99.90
52565;DHT22;38460;53.106;7.004;2023-06-22T04:45:19;16.90;99.90
52565;DHT22;38460;53.106;7.004;2023-06-22T04:47:44;16.90;99.90
52565;DHT22;38460;53.106;7.004;2023-06-22T04:50:11;16.90;99.90
52565;DHT22;38460;53.106;7.004;2023-06-22T04:52:37;17.00;99.90
52565;DHT22;38460;53.106;7.004;2023-06-22T04:55:04;17.00;99.90
52565;DHT22;38460;53.106;7.004;2023-06-22T04:57:30;17.00;99.90
52565;DHT22;38460;53.106;7.004;2023-06-22T05:00:00;17.00;99.90
52565;DHT22;38460;53.106;7.004;2023-06-22T05:02:38;17.10;99.90
52565;DHT22;38460;53.106;7.004;2023-06-22T05:05:04;17.10;99.90
52565;DHT22;38460;53.106;7.004;2023-06-22T05:07:34;17.20;99.90
52565;DHT22;38460;53.106;7.004;2023-06-22T05:10:01;17.20;99.90
52565;DHT22;38460;53.106;7.004;2023-06-22T05:12:28;17.20;99.90
52565;DHT22;38460;53.106;7.004;2023-06-22T05:14:54;17.20;99.90
52565;DHT22;38460;53.106;7.004;2023-06-22T05:17:20;17.30;99.90
52565;DHT22;38460;53.106;7.004;2023-06-22T05:19:46;17.30;99.90
52565;DHT22;38460;53.106;7.004;2023-06-22T05:22:15;17.30;99.90
52565;DHT22;38460;53.106;7.004;2023-06-22T05:24:41;17.40;99.90
52565;DHT22;38460;53.106;7.004;2023-06-22T05:27:08;17.40;99.90
52565;DHT22;38460;53.106;7.004;2023-06-22T05:29:34;17.50;99.90
52565;DHT22;38460;53.106;7.004;2023-06-22T05:32:00;17.50;99.90
52565;DHT22;38460;53.106;7.004;2023-06-22T05:34:26;17.50;99.90
52565;DHT22;38460;53.106;7.004;2023-06-22T05:36:52;17.60;99.90
52565;DHT22;38460;53.106;7.004;2023-06-22T05:39:18;17.60;99.90
52565;DHT22;38460;53.106;7.004;2023-06-22T05:41:45;17.70;99.90
52565;DHT22;38460;53.106;7.004;2023-06-22T05:44:11;17.70;99.90
52565;DHT22;38460;53.106;7.004;2023-06-22T05:46:40;17.80;99.90
52565;DHT22;38460;53.106;7.004;2023-06-22T05:49:10;17.90;99.90
52565;DHT22;38460;53.106;7.004;2023-06-22T05:51:36;17.90;99.90
52565;DHT22;38460;53.106;7.004;2023-06-22T05:54:02;18.00;99.90
52565;DHT22;38460;53.106;7.004;2023-06-22T05:56:28;18.00;99.90
52565;DHT22;38460;53.106;7.004;2023-06-22T05:58:54;18.10;99.90
52565;DHT22;38460;53.106;7.004;2023-06-22T06:01:19;18.10;99.90
52565;DHT22;38460;53.106;7.004;2023-06-22T06:03:45;18.10;99.90
52565;DHT22;38460;53.106;7.004;2023-06-22T06:06:11;18.20;99.90
52565;DHT22;38460;53.106;7.004;2023-06-22T06:08:38;18.20;99.90
52565;DHT22;38460;53.106;7.004;2023-06-22T06:11:04;18.20;99.90
52565;DHT22;38460;53.106;7.004;2023-06-22T06:13:30;18.30;99.90
52565;DHT22;38460;53.106;7.004;2023-06-22T06:15:56;18.40;99.90
52565;DHT22;38460;53.106;7.004;2023-06-22T06:18:22;18.40;99.90
52565;DHT22;38460;53.106;7.004;2023-06-22T06:20:48;18.40;99.90
52565;DHT22;38460;53.106;7.004;2023-06-22T06:23:14;18.50;99.90
52565;DHT22;38460;53.106;7.004;2023-06-22T06:25:40;18.50;99.90
52565;DHT22;38460;53.106;7.004;2023-06-22T06:28:05;18.50;99.90
52565;DHT22;38460;53.106;7.004;2023-06-22T06:30:31;18.60;99.90
52565;DHT22;38460;53.106;7.004;2023-06-22T06:32:57;18.60;99.90
52565;DHT22;38460;53.106;7.004;2023-06-22T06:35:23;18.70;99.90
52565;DHT22;38460;53.106;7.004;2023-06-22T06:37:50;18.70;99.90
52565;DHT22;38460;53.106;7.004;2023-06-22T06:40:17;18.80;99.90
52565;DHT22;38460;53.106;7.004;2023-06-22T06:42:48;18.80;99.90
52565;DHT22;38460;53.106;7.004;2023-06-22T06:45:20;18.90;99.90
52565;DHT22;38460;53.106;7.004;2023-06-22T06:47:48;18.90;99.90
52565;DHT22;38460;53.106;7.004;2023-06-22T06:50:14;19.00;99.90
52565;DHT22;38460;53.106;7.004;2023-06-22T06:52:40;19.10;99.90
52565;DHT22;38460;53.106;7.004;2023-06-22T06:55:07;19.10;99.90
52565;DHT22;38460;53.106;7.004;2023-06-22T06:57:36;19.20;99.90
52565;DHT22;38460;53.106;7.004;2023-06-22T07:00:06;19.30;99.90
52565;DHT22;38460;53.106;7.004;2023-06-22T07:02:35;19.30;99.90
52565;DHT22;38460;53.106;7.004;2023-06-22T07:05:01;19.30;99.90
52565;DHT22;38460;53.106;7.004;2023-06-22T07:07:30;19.40;99.90
52565;DHT22;38460;53.106;7.004;2023-06-22T07:09:55;19.50;99.90
52565;DHT22;38460;53.106;7.004;2023-06-22T07:12:21;19.50;99.90
52565;DHT22;38460;53.106;7.004;2023-06-22T07:14:47;19.60;99.90
52565;DHT22;38460;53.106;7.004;2023-06-22T07:17:16;19.70;99.90
52565;DHT22;38460;53.106;7.004;2023-06-22T07:19:41;19.70;99.90
52565;DHT22;38460;53.106;7.004;2023-06-22T07:22:08;19.80;99.90
52565;DHT22;38460;53.106;7.004;2023-06-22T07:24:33;19.80;99.90
52565;DHT22;38460;53.106;7.004;2023-06-22T07:27:00;19.90;99.90
52565;DHT22;38460;53.106;7.004;2023-06-22T07:29:26;20.00;99.90
52565;DHT22;38460;53.106;7.004;2023-06-22T07:31:53;20.00;99.90
52565;DHT22;38460;53.106;7.004;2023-06-22T07:34:22;20.10;99.90
52565;DHT22;38460;53.106;7.004;2023-06-22T07:36:48;20.10;99.90
52565;DHT22;38460;53.106;7.004;2023-06-22T07:39:13;20.20;99.90
52565;DHT22;38460;53.106;7.004;2023-06-22T07:41:40;20.30;99.90
52565;DHT22;38460;53.106;7.004;2023-06-22T07:44:06;20.30;99.90
52565;DHT22;38460;53.106;7.004;2023-06-22T07:46:32;20.40;99.90
52565;DHT22;38460;53.106;7.004;2023-06-22T07:48:58;20.40;99.90
52565;DHT22;38460;53.106;7.004;2023-06-22T07:51:25;20.50;99.90
52565;DHT22;38460;53.106;7.004;2023-06-22T07:53:51;20.50;99.90
52565;DHT22;38460;53.106;7.004;2023-06-22T07:56:16;20.60;99.90
52565;DHT22;38460;53.106;7.004;2023-06-22T07:58:47;20.60;99.90
52565;DHT22;38460;53.106;7.004;2023-06-22T08:01:14;20.60;99.90
52565;DHT22;38460;53.106;7.004;2023-06-22T08:03:39;20.70;99.90
52565;DHT22;38460;53.106;7.004;2023-06-22T08:06:06;20.80;99.90
52565;DHT22;38460;53.106;7.004;2023-06-22T08:08:35;20.80;99.90
52565;DHT22;38460;53.106;7.004;2023-06-22T08:11:00;20.90;99.90
52565;DHT22;38460;53.106;7.004;2023-06-22T08:13:26;21.00;99.90
52565;DHT22;38460;53.106;7.004;2023-06-22T08:15:52;21.00;99.90
52565;DHT22;38460;53.106;7.004;2023-06-22T08:18:18;21.10;99.90
52565;DHT22;38460;53.106;7.004;2023-06-22T08:20:43;21.10;99.90
52565;DHT22;38460;53.106;7.004;2023-06-22T08:23:09;21.20;99.90
52565;DHT22;38460;53.106;7.004;2023-06-22T08:25:35;21.20;99.90
52565;DHT22;38460;53.106;7.004;2023-06-22T08:28:01;21.30;99.90
52565;DHT22;38460;53.106;7.004;2023-06-22T08:30:28;21.40;99.90
52565;DHT22;38460;53.106;7.004;2023-06-22T08:32:53;21.40;99.90
52565;DHT22;38460;53.106;7.004;2023-06-22T08:35:21;21.50;99.90
52565;DHT22;38460;53.106;7.004;2023-06-22T08:37:47;21.50;99.90
52565;DHT22;38460;53.106;7.004;2023-06-22T08:40:18;21.60;99.90
52565;DHT22;38460;53.106;7.004;2023-06-22T08:42:46;21.70;99.90
52565;DHT22;38460;53.106;7.004;2023-06-22T08:45:12;21.80;99.90
52565;DHT22;38460;53.106;7.004;2023-06-22T08:47:39;21.80;99.90
52565;DHT22;38460;53.106;7.004;2023-06-22T08:50:05;21.90;99.90
52565;DHT22;38460;53.106;7.004;2023-06-22T08:52:32;21.90;99.90
52565;DHT22;38460;53.106;7.004;2023-06-22T08:54:57;21.90;99.90
52565;DHT22;38460;53.106;7.004;2023-06-22T08:57:27;22.00;99.90
52565;DHT22;38460;53.106;7.004;2023-06-22T08:59:53;22.00;99.90
52565;DHT22;38460;53.106;7.004;2023-06-22T09:02:19;22.00;99.90
52565;DHT22;38460;53.106;7.004;2023-06-22T09:04:48;22.00;99.90
52565;DHT22;38460;53.106;7.004;2023-06-22T09:07:15;22.10;99.90
52565;DHT22;38460;53.106;7.004;2023-06-22T09:09:47;22.10;99.90
52565;DHT22;38460;53.106;7.004;2023-06-22T09:12:13;22.10;99.90
52565;DHT22;38460;53.106;7.004;2023-06-22T09:14:39;22.20;99.90
52565;DHT22;38460;53.106;7.004;2023-06-22T09:17:05;22.20;99.90
52565;DHT22;38460;53.106;7.004;2023-06-22T09:19:30;22.30;99.90
52565;DHT22;38460;53.106;7.004;2023-06-22T09:21:56;22.40;99.90
52565;DHT22;38460;53.106;7.004;2023-06-22T09:24:22;22.40;99.90
52565;DHT22;38460;53.106;7.004;2023-06-22T09:26:48;22.40;99.90
52565;DHT22;38460;53.106;7.004;2023-06-22T09:29:14;22.50;99.90
52565;DHT22;38460;53.106;7.004;2023-06-22T09:31:39;22.50;99.90
52565;DHT22;38460;53.106;7.004;2023-06-22T09:34:06;22.50;99.90
52565;DHT22;38460;53.106;7.004;2023-06-22T09:36:32;22.60;99.90
52565;DHT22;38460;53.106;7.004;2023-06-22T09:38:57;22.60;99.90
52565;DHT22;38460;53.106;7.004;2023-06-22T09:41:24;22.70;99.90
52565;DHT22;38460;53.106;7.004;2023-06-22T09:43:50;22.80;99.90
52565;DHT22;38460;53.106;7.004;2023-06-22T09:46:16;22.80;99.90
52565;DHT22;38460;53.106;7.004;2023-06-22T09:48:42;22.80;99.90
52565;DHT22;38460;53.106;7.004;2023-06-22T09:51:08;22.80;99.90
52565;DHT22;38460;53.106;7.004;2023-06-22T09:53:33;22.80;99.90
52565;DHT22;38460;53.106;7.004;2023-06-22T09:56:00;22.80;99.90
52565;DHT22;38460;53.106;7.004;2023-06-22T09:58:27;23.00;99.90
52565;DHT22;38460;53.106;7.004;2023-06-22T10:00:53;23.10;99.90
52565;DHT22;38460;53.106;7.004;2023-06-22T10:03:20;23.10;99.90
52565;DHT22;38460;53.106;7.004;2023-06-22T10:05:46;23.10;99.90
52565;DHT22;38460;53.106;7.004;2023-06-22T10:08:11;23.20;99.90
52565;DHT22;38460;53.106;7.004;2023-06-22T10:10:37;23.30;99.90
52565;DHT22;38460;53.106;7.004;2023-06-22T10:13:08;23.40;99.90
52565;DHT22;38460;53.106;7.004;2023-06-22T10:15:38;23.50;99.90
52565;DHT22;38460;53.106;7.004;2023-06-22T10:18:04;23.60;99.90
52565;DHT22;38460;53.106;7.004;2023-06-22T10:20:30;23.50;99.90
52565;DHT22;38460;53.106;7.004;2023-06-22T10:22:56;23.60;99.90
52565;DHT22;38460;53.106;7.004;2023-06-22T10:25:22;23.60;99.90
52565;DHT22;38460;53.106;7.004;2023-06-22T10:27:48;23.60;99.90
52565;DHT22;38460;53.106;7.004;2023-06-22T10:30:14;23.70;99.90
52565;DHT22;38460;53.106;7.004;2023-06-22T10:32:40;23.70;99.90
52565;DHT22;38460;53.106;7.004;2023-06-22T10:35:07;23.70;99.90
52565;DHT22;38460;53.106;7.004;2023-06-22T10:37:32;23.80;99.90
52565;DHT22;38460;53.106;7.004;2023-06-22T10:39:58;23.90;99.90
52565;DHT22;38460;53.106;7.004;2023-06-22T10:42:24;23.90;99.90
52565;DHT22;38460;53.106;7.004;2023-06-22T10:44:50;24.00;99.90
52565;DHT22;38460;53.106;7.004;2023-06-22T10:47:15;23.90;99.90
52565;DHT22;38460;53.106;7.004;2023-06-22T10:49:42;24.00;99.90
52565;DHT22;38460;53.106;7.004;2023-06-22T10:52:08;24.00;99.90
52565;DHT22;38460;53.106;7.004;2023-06-22T10:54:38;24.00;99.90
52565;DHT22;38460;53.106;7.004;2023-06-22T10:57:04;24.10;99.90
52565;DHT22;38460;53.106;7.004;2023-06-22T10:59:29;24.10;99.90
52565;DHT22;38460;53.106;7.004;2023-06-22T11:01:56;24.10;99.90
52565;DHT22;38460;53.106;7.004;2023-06-22T11:04:22;24.20;99.90
52565;DHT22;38460;53.106;7.004;2023-06-22T11:06:48;24.20;99.90
52565;DHT22;38460;53.106;7.004;2023-06-22T11:09:15;24.30;99.90
52565;DHT22;38460;53.106;7.004;2023-06-22T11:11:50;24.40;99.90
52565;DHT22;38460;53.106;7.004;2023-06-22T11:14:19;24.40;99.90
52565;DHT22;38460;53.106;7.004;2023-06-22T11:16:45;24.50;99.90
52565;DHT22;38460;53.106;7.004;2023-06-22T11:19:12;24.60;99.90
52565;DHT22;38460;53.106;7.004;2023-06-22T11:21:38;24.60;99.90
52565;DHT22;38460;53.106;7.004;2023-06-22T11:24:03;24.60;99.90
52565;DHT22;38460;53.106;7.004;2023-06-22T11:26:29;24.70;99.90
52565;DHT22;38460;53.106;7.004;2023-06-22T11:28:55;24.80;99.90
52565;DHT22;38460;53.106;7.004;2023-06-22T11:31:21;24.80;99.90
52565;DHT22;38460;53.106;7.004;2023-06-22T11:33:47;24.60;99.90
52565;DHT22;38460;53.106;7.004;2023-06-22T11:36:14;24.60;99.90
52565;DHT22;38460;53.106;7.004;2023-06-22T11:38:40;24.70;99.90
52565;DHT22;38460;53.106;7.004;2023-06-22T11:41:06;24.70;99.90
52565;DHT22;38460;53.106;7.004;2023-06-22T11:43:33;24.80;99.90
52565;DHT22;38460;53.106;7.004;2023-06-22T11:46:00;24.80;99.90
52565;DHT22;38460;53.106;7.004;2023-06-22T11:48:26;24.80;99.90
52565;DHT22;38460;53.106;7.004;2023-06-22T11:50:52;24.90;99.90
52565;DHT22;38460;53.106;7.004;2023-06-22T11:53:17;25.00;99.90
52565;DHT22;38460;53.106;7.004;2023-06-22T11:55:44;25.10;99.90
52565;DHT22;38460;53.106;7.004;2023-06-22T11:58:10;25.20;99.90
52565;DHT22;38460;53.106;7.004;2023-06-22T12:00:37;25.30;99.90
52565;DHT22;38460;53.106;7.004;2023-06-22T12:03:03;25.30;99.90
52565;DHT22;38460;53.106;7.004;2023-06-22T12:05:29;25.40;99.90
52565;DHT22;38460;53.106;7.004;2023-06-22T12:07:55;25.30;99.90
52565;DHT22;38460;53.106;7.004;2023-06-22T12:10:22;25.30;99.90
52565;DHT22;38460;53.106;7.004;2023-06-22T12:12:48;25.30;99.90
52565;DHT22;38460;53.106;7.004;2023-06-22T12:15:13;25.40;99.90
52565;DHT22;38460;53.106;7.004;2023-06-22T12:17:40;25.40;99.90
52565;DHT22;38460;53.106;7.004;2023-06-22T12:20:07;25.40;99.90
52565;DHT22;38460;53.106;7.004;2023-06-22T12:22:33;25.40;99.90
52565;DHT22;38460;53.106;7.004;2023-06-22T12:24:59;25.40;99.90
52565;DHT22;38460;53.106;7.004;2023-06-22T12:27:25;25.30;99.90
52565;DHT22;38460;53.106;7.004;2023-06-22T12:29:51;25.30;99.90
52565;DHT22;38460;53.106;7.004;2023-06-22T12:32:17;25.20;99.90
52565;DHT22;38460;53.106;7.004;2023-06-22T12:34:43;25.20;99.90
52565;DHT22;38460;53.106;7.004;2023-06-22T12:37:10;25.30;99.90
52565;DHT22;38460;53.106;7.004;2023-06-22T12:39:36;25.30;99.90
52565;DHT22;38460;53.106;7.004;2023-06-22T12:42:02;25.30;99.90
52565;DHT22;38460;53.106;7.004;2023-06-22T12:44:28;25.40;99.90
52565;DHT22;38460;53.106;7.004;2023-06-22T12:46:54;25.40;99.90
52565;DHT22;38460;53.106;7.004;2023-06-22T12:49:19;25.50;99.90
52565;DHT22;38460;53.106;7.004;2023-06-22T12:51:45;25.50;99.90
52565;DHT22;38460;53.106;7.004;2023-06-22T12:54:11;25.50;99.90
52565;DHT22;38460;53.106;7.004;2023-06-22T12:56:38;25.50;99.90
52565;DHT22;38460;53.106;7.004;2023-06-22T12:59:04;25.40;99.90
52565;DHT22;38460;53.106;7.004;2023-06-22T13:01:30;25.40;99.90
52565;DHT22;38460;53.106;7.004;2023-06-22T13:03:58;25.30;99.90
52565;DHT22;38460;53.106;7.004;2023-06-22T13:06:24;25.30;99.90
52565;DHT22;38460;53.106;7.004;2023-06-22T13:08:50;25.30;99.90
52565;DHT22;38460;53.106;7.004;2023-06-22T13:11:15;25.20;99.90
52565;DHT22;38460;53.106;7.004;2023-06-22T13:13:41;25.20;99.90
52565;DHT22;38460;53.106;7.004;2023-06-22T13:16:07;25.10;99.90
52565;DHT22;38460;53.106;7.004;2023-06-22T13:18:33;25.10;99.90
52565;DHT22;38460;53.106;7.004;2023-06-22T13:21:01;25.10;99.90
52565;DHT22;38460;53.106;7.004;2023-06-22T13:23:27;25.00;99.90
52565;DHT22;38460;53.106;7.004;2023-06-22T13:25:53;25.00;99.90
52565;DHT22;38460;53.106;7.004;2023-06-22T13:28:19;24.90;99.90
52565;DHT22;38460;53.106;7.004;2023-06-22T13:30:46;24.90;99.90
52565;DHT22;38460;53.106;7.004;2023-06-22T13:33:16;24.80;99.90
52565;DHT22;38460;53.106;7.004;2023-06-22T13:35:42;24.80;99.90
52565;DHT22;38460;53.106;7.004;2023-06-22T13:38:09;24.70;99.90
52565;DHT22;38460;53.106;7.004;2023-06-22T13:40:35;24.70;99.90
52565;DHT22;38460;53.106;7.004;2023-06-22T13:43:01;24.60;99.90
52565;DHT22;38460;53.106;7.004;2023-06-22T13:45:27;24.60;99.90
52565;DHT22;38460;53.106;7.004;2023-06-22T13:47:52;24.60;99.90
52565;DHT22;38460;53.106;7.004;2023-06-22T13:50:18;24.60;99.90
52565;DHT22;38460;53.106;7.004;2023-06-22T13:52:44;24.60;99.90
52565;DHT22;38460;53.106;7.004;2023-06-22T13:55:10;24.50;99.90
52565;DHT22;38460;53.106;7.004;2023-06-22T13:57:36;24.50;99.90
52565;DHT22;38460;53.106;7.004;2023-06-22T14:00:04;24.50;99.90
52565;DHT22;38460;53.106;7.004;2023-06-22T14:02:33;24.40;99.90
52565;DHT22;38460;53.106;7.004;2023-06-22T14:04:59;24.30;99.90
52565;DHT22;38460;53.106;7.004;2023-06-22T14:07:25;24.20;99.90
52565;DHT22;38460;53.106;7.004;2023-06-22T14:09:51;24.10;99.90
52565;DHT22;38460;53.106;7.004;2023-06-22T14:12:17;24.10;99.90
52565;DHT22;38460;53.106;7.004;2023-06-22T14:14:45;24.00;99.90
52565;DHT22;38460;53.106;7.004;2023-06-22T14:17:11;23.90;99.90
52565;DHT22;38460;53.106;7.004;2023-06-22T14:19:37;23.80;99.90
52565;DHT22;38460;53.106;7.004;2023-06-22T14:22:03;23.80;99.90
52565;DHT22;38460;53.106;7.004;2023-06-22T14:24:29;23.80;99.90
52565;DHT22;38460;53.106;7.004;2023-06-22T14:26:55;23.70;99.90
52565;DHT22;38460;53.106;7.004;2023-06-22T14:29:22;23.70;99.90
52565;DHT22;38460;53.106;7.004;2023-06-22T14:31:48;23.60;99.90
52565;DHT22;38460;53.106;7.004;2023-06-22T14:34:15;23.60;99.90
52565;DHT22;38460;53.106;7.004;2023-06-22T14:36:41;23.40;99.90
52565;DHT22;38460;53.106;7.004;2023-06-22T14:39:08;23.40;99.90
52565;DHT22;38460;53.106;7.004;2023-06-22T14:41:33;23.30;99.90
52565;DHT22;38460;53.106;7.004;2023-06-22T14:43:59;23.30;99.90
52565;DHT22;38460;53.106;7.004;2023-06-22T14:46:25;23.10;99.90
52565;DHT22;38460;53.106;7.004;2023-06-22T14:48:51;23.10;99.90
52565;DHT22;38460;53.106;7.004;2023-06-22T14:51:16;23.00;99.90
52565;DHT22;38460;53.106;7.004;2023-06-22T14:53:43;23.00;99.90
52565;DHT22;38460;53.106;7.004;2023-06-22T14:56:09;22.90;99.90
52565;DHT22;38460;53.106;7.004;2023-06-22T14:58:35;22.90;99.90
52565;DHT22;38460;53.106;7.004;2023-06-22T15:01:02;22.80;99.90
52565;DHT22;38460;53.106;7.004;2023-06-22T15:03:28;22.80;99.90
52565;DHT22;38460;53.106;7.004;2023-06-22T15:05:56;22.70;99.90
52565;DHT22;38460;53.106;7.004;2023-06-22T15:08:22;22.70;99.90
52565;DHT22;38460;53.106;7.004;2023-06-22T15:10:48;22.70;99.90
52565;DHT22;38460;53.106;7.004;2023-06-22T15:13:14;22.60;99.90
52565;DHT22;38460;53.106;7.004;2023-06-22T15:15:40;22.60;99.90
52565;DHT22;38460;53.106;7.004;2023-06-22T15:18:05;22.50;99.90
52565;DHT22;38460;53.106;7.004;2023-06-22T15:20:31;22.50;99.90
52565;DHT22;38460;53.106;7.004;2023-06-22T15:22:57;22.50;99.90
52565;DHT22;38460;53.106;7.004;2023-06-22T15:25:23;22.40;99.90
52565;DHT22;38460;53.106;7.004;2023-06-22T15:27:49;22.50;99.90
52565;DHT22;38460;53.106;7.004;2023-06-22T15:30:15;22.40;99.90
52565;DHT22;38460;53.106;7.004;2023-06-22T15:32:44;22.30;99.90
52565;DHT22;38460;53.106;7.004;2023-06-22T15:35:11;22.20;99.90